createdAt,value
2023-02-05T00:00:40.805Z,58.40
2023-02-05T00:03:12.118Z,58.40
2023-02-05T00:05:41.214Z,58.40
2023-02-05T00:08:13.327Z,58.50
2023-02-05T00:10:50.374Z,58.60
2023-02-05T00:13:17.182Z,58.60
2023-02-05T00:15:46.109Z,58.50
2023-02-05T00:18:15.052Z,58.50
2023-02-05T00:20:46.821Z,58.60
2023-02-05T00:23:15.994Z,58.60
2023-02-05T00:25:42.829Z,58.60
2023-02-05T00:28:12.012Z,58.80
2023-02-05T00:30:41.876Z,58.70
2023-02-05T00:33:10.987Z,58.80
2023-02-05T00:35:37.988Z,58.90
2023-02-05T00:38:07.253Z,59.00
2023-02-05T00:40:38.386Z,59.30
2023-02-05T00:43:10.064Z,58.90
2023-02-05T00:45:39.984Z,58.90
2023-02-05T00:48:09.368Z,58.80
2023-02-05T00:50:38.682Z,58.80
2023-02-05T00:53:08.225Z,58.80
2023-02-05T00:55:37.592Z,58.70
2023-02-05T00:58:11.545Z,58.80
2023-02-05T01:00:40.863Z,58.80
2023-02-05T01:03:10.136Z,58.90
2023-02-05T01:05:39.111Z,58.80
2023-02-05T01:08:10.694Z,58.90
2023-02-05T01:10:44.969Z,58.90
2023-02-05T01:13:12.676Z,58.90
2023-02-05T01:15:39.784Z,59.00
2023-02-05T01:18:11.550Z,59.00
2023-02-05T01:20:44.090Z,59.00
2023-02-05T01:23:15.612Z,59.20
2023-02-05T01:25:44.259Z,59.20
2023-02-05T01:28:15.810Z,59.20
2023-02-05T01:30:50.842Z,59.20
2023-02-05T01:33:19.056Z,59.30
2023-02-05T01:35:46.441Z,59.30
2023-02-05T01:38:16.079Z,59.30
2023-02-05T01:40:47.576Z,59.40
2023-02-05T01:43:20.296Z,59.50
2023-02-05T01:46:09.199Z,59.50
2023-02-05T01:48:45.971Z,59.60
2023-02-05T01:51:15.557Z,59.60
2023-02-05T01:53:48.377Z,59.60
2023-02-05T01:56:26.863Z,59.60
2023-02-05T01:59:02.555Z,59.60
2023-02-05T02:01:34.767Z,59.50
2023-02-05T02:04:09.283Z,59.60
2023-02-05T02:06:38.537Z,59.60
2023-02-05T02:09:08.531Z,59.70
2023-02-05T02:11:40.442Z,59.80
2023-02-05T02:14:13.743Z,59.90
2023-02-05T02:16:43.578Z,59.90
2023-02-05T02:19:40.283Z,59.90
2023-02-05T02:22:41.581Z,60.10
2023-02-05T02:25:52.346Z,60.40
2023-02-05T02:28:36.997Z,60.20
2023-02-05T02:31:18.680Z,60.00
2023-02-05T02:34:01.374Z,59.90
2023-02-05T02:36:44.516Z,60.00
2023-02-05T02:39:23.203Z,60.00
2023-02-05T02:42:06.006Z,60.10
2023-02-05T02:44:52.799Z,60.20
2023-02-05T02:47:28.211Z,60.10
2023-02-05T02:50:10.212Z,60.20
2023-02-05T02:52:43.803Z,60.30
2023-02-05T02:55:19.277Z,60.20
2023-02-05T02:57:53.934Z,60.30
2023-02-05T03:00:30.139Z,60.30
2023-02-05T03:03:06.656Z,60.40
2023-02-05T03:05:41.369Z,60.40
2023-02-05T03:08:23.939Z,60.30
2023-02-05T03:11:12.381Z,60.40
2023-02-05T03:13:40.169Z,60.40
2023-02-05T03:16:11.096Z,60.20
2023-02-05T03:18:38.614Z,60.30
2023-02-05T03:21:47.988Z,60.20
2023-02-05T03:24:22.833Z,61.10
2023-02-05T03:26:49.804Z,60.20
2023-02-05T03:29:34.848Z,60.10
2023-02-05T03:32:53.022Z,60.20
2023-02-05T03:36:02.751Z,60.50
2023-02-05T03:38:51.558Z,60.60
2023-02-05T03:42:04.770Z,60.50
2023-02-05T03:45:00.471Z,60.60
2023-02-05T03:48:04.769Z,60.30
2023-02-05T03:51:08.312Z,60.80
2023-02-05T03:53:59.913Z,60.80
2023-02-05T03:56:46.300Z,60.50
2023-02-05T03:59:18.209Z,60.60
2023-02-05T04:01:50.768Z,60.50
2023-02-05T04:04:27.189Z,60.50
2023-02-05T04:06:55.496Z,60.70
2023-02-05T04:09:25.011Z,60.70
2023-02-05T04:11:58.575Z,60.70
2023-02-05T04:14:25.964Z,60.70
2023-02-05T04:16:52.786Z,60.70
2023-02-05T04:19:25.640Z,60.60
2023-02-05T04:21:56.879Z,60.60
2023-02-05T04:24:25.313Z,60.70
2023-02-05T04:26:57.452Z,60.80
2023-02-05T04:29:41.939Z,60.70
2023-02-05T04:32:13.620Z,60.80
2023-02-05T04:34:43.406Z,60.80
2023-02-05T04:37:14.452Z,60.70
2023-02-05T04:39:45.956Z,60.80
2023-02-05T04:42:12.812Z,60.80
2023-02-05T04:44:42.724Z,60.80
2023-02-05T04:47:14.526Z,60.90
2023-02-05T04:49:46.459Z,60.80
2023-02-05T04:52:15.577Z,60.70
2023-02-05T04:54:46.683Z,60.70
2023-02-05T04:57:15.883Z,60.70
2023-02-05T04:59:46.152Z,60.70
2023-02-05T05:02:16.509Z,60.70
2023-02-05T05:04:48.941Z,60.60
2023-02-05T05:07:16.367Z,60.80
2023-02-05T05:09:43.714Z,60.60
2023-02-05T05:12:12.849Z,60.70
2023-02-05T05:14:39.808Z,60.60
2023-02-05T05:17:15.663Z,60.60
2023-02-05T05:19:44.648Z,60.70
2023-02-05T05:22:11.578Z,60.70
2023-02-05T05:24:38.550Z,60.70
2023-02-05T05:27:07.864Z,60.70
2023-02-05T05:29:37.394Z,60.80
2023-02-05T05:32:04.877Z,60.80
2023-02-05T05:34:36.924Z,60.80
2023-02-05T05:37:05.992Z,60.90
2023-02-05T05:39:55.920Z,60.90
2023-02-05T05:42:46.037Z,61.00
2023-02-05T05:45:15.350Z,61.00
2023-02-05T05:47:45.267Z,61.00
2023-02-05T05:50:12.129Z,61.10
2023-02-05T05:52:43.595Z,61.10
2023-02-05T05:55:12.838Z,61.10
2023-02-05T05:57:39.663Z,61.10
2023-02-05T06:00:09.218Z,61.10
2023-02-05T06:02:47.295Z,61.20
2023-02-05T06:05:16.821Z,61.20
2023-02-05T06:07:43.682Z,61.20
2023-02-05T06:10:12.712Z,61.20
2023-02-05T06:12:49.202Z,61.30
2023-02-05T06:15:23.380Z,61.40
2023-02-05T06:17:50.214Z,61.60
2023-02-05T06:20:17.146Z,61.50
2023-02-05T06:22:51.142Z,61.50
2023-02-05T06:25:20.275Z,61.50
2023-02-05T06:27:47.136Z,61.60
2023-02-05T06:30:20.958Z,61.80
2023-02-05T06:32:50.241Z,61.70
2023-02-05T06:35:25.298Z,61.70
2023-02-05T06:37:54.661Z,61.70
2023-02-05T06:40:22.419Z,61.70
2023-02-05T06:42:55.537Z,61.70
2023-02-05T06:45:28.102Z,61.70
2023-02-05T06:48:02.064Z,61.70
2023-02-05T06:50:33.344Z,61.70
2023-02-05T06:53:02.665Z,61.80
2023-02-05T06:55:36.524Z,61.80
2023-02-05T06:58:03.543Z,62.00
2023-02-05T07:00:32.364Z,62.00
2023-02-05T07:02:59.478Z,62.20
2023-02-05T07:05:26.384Z,62.10
2023-02-05T07:07:53.260Z,62.20
2023-02-05T07:10:23.650Z,62.30
2023-02-05T07:12:53.812Z,62.50
2023-02-05T07:15:23.135Z,62.60
2023-02-05T07:17:50.395Z,62.50
2023-02-05T07:20:18.667Z,62.60
2023-02-05T07:22:50.733Z,62.40
2023-02-05T07:25:24.694Z,62.40
2023-02-05T07:27:54.183Z,62.50
2023-02-05T07:30:21.121Z,62.50
2023-02-05T07:32:52.575Z,62.60
2023-02-05T07:35:26.599Z,62.50
2023-02-05T07:37:58.095Z,62.60
2023-02-05T07:40:27.438Z,62.70
2023-02-05T07:42:55.010Z,62.80
2023-02-05T07:45:22.149Z,62.80
2023-02-05T07:47:50.401Z,62.90
2023-02-05T07:50:19.653Z,62.90
2023-02-05T07:52:49.545Z,62.80
2023-02-05T07:55:18.677Z,62.90
2023-02-05T07:57:48.063Z,63.10
2023-02-05T08:00:15.252Z,63.30
2023-02-05T08:02:46.581Z,63.30
2023-02-05T08:05:13.608Z,63.20
2023-02-05T08:07:40.498Z,63.30
2023-02-05T08:10:07.809Z,63.40
2023-02-05T08:12:35.869Z,63.40
2023-02-05T08:15:06.148Z,63.40
2023-02-05T08:17:35.076Z,63.40
2023-02-05T08:20:08.463Z,63.20
2023-02-05T08:22:43.080Z,63.20
2023-02-05T08:25:16.913Z,63.30
2023-02-05T08:27:46.478Z,63.30
2023-02-05T08:30:21.723Z,63.20
2023-02-05T08:32:55.962Z,63.30
2023-02-05T08:35:30.704Z,63.40
2023-02-05T08:37:57.844Z,63.30
2023-02-05T08:40:30.018Z,63.20
2023-02-05T08:42:57.757Z,63.40
2023-02-05T08:45:27.788Z,63.20
2023-02-05T08:47:58.185Z,63.30
2023-02-05T08:50:29.294Z,63.20
2023-02-05T08:52:58.818Z,63.20
2023-02-05T08:55:30.745Z,63.40
2023-02-05T08:57:57.679Z,63.50
2023-02-05T09:00:28.236Z,63.40
2023-02-05T09:02:55.200Z,63.50
2023-02-05T09:05:22.009Z,63.40
2023-02-05T09:07:51.310Z,63.50
2023-02-05T09:10:22.495Z,63.50
2023-02-05T09:12:56.889Z,63.60
2023-02-05T09:15:28.454Z,63.80
2023-02-05T09:17:55.298Z,63.70
2023-02-05T09:20:22.111Z,63.60
2023-02-05T09:22:50.273Z,64.30
2023-02-05T09:25:17.459Z,63.90
2023-02-05T09:27:46.625Z,64.00
2023-02-05T09:30:18.570Z,64.10
2023-02-05T09:32:48.034Z,64.10
2023-02-05T09:35:19.434Z,64.30
2023-02-05T09:37:46.321Z,64.10
2023-02-05T09:40:38.278Z,64.20
2023-02-05T09:43:49.439Z,64.20
2023-02-05T09:47:05.731Z,63.90
2023-02-05T09:50:06.697Z,64.30
2023-02-05T09:52:51.006Z,64.30
2023-02-05T09:55:29.556Z,64.30
2023-02-05T09:58:13.519Z,64.60
2023-02-05T10:00:52.833Z,64.30
2023-02-05T10:03:48.672Z,64.70
2023-02-05T10:06:41.636Z,64.20
2023-02-05T10:09:44.433Z,64.50
2023-02-05T10:12:19.405Z,65.10
2023-02-05T10:15:24.576Z,64.30
2023-02-05T10:18:17.528Z,65.30
2023-02-05T10:21:21.568Z,65.10
2023-02-05T10:23:51.502Z,64.90
2023-02-05T10:26:34.470Z,64.70
2023-02-05T10:29:35.877Z,64.70
2023-02-05T10:32:20.247Z,65.80
2023-02-05T10:35:37.441Z,65.60
2023-02-05T10:38:14.147Z,65.60
2023-02-05T10:40:48.109Z,64.50
2023-02-05T10:43:49.597Z,64.70
2023-02-05T10:46:20.458Z,65.20
2023-02-05T10:49:17.692Z,64.80
2023-02-05T10:51:49.335Z,65.00
2023-02-05T10:54:23.495Z,64.90
2023-02-05T10:56:50.477Z,64.90
2023-02-05T10:59:28.558Z,64.90
2023-02-05T11:02:03.212Z,65.10
2023-02-05T11:04:39.851Z,65.00
2023-02-05T11:07:16.384Z,65.20
2023-02-05T11:09:50.160Z,65.20
2023-02-05T11:12:31.598Z,65.10
2023-02-05T11:15:42.396Z,65.30
2023-02-05T11:18:32.569Z,65.90
2023-02-05T11:21:03.705Z,66.00
2023-02-05T11:23:39.611Z,65.40
2023-02-05T11:26:17.908Z,65.30
2023-02-05T11:28:49.864Z,65.50
2023-02-05T11:31:35.578Z,65.40
2023-02-05T11:34:08.626Z,66.30
2023-02-05T11:36:48.447Z,65.80
2023-02-05T11:39:39.612Z,65.60
2023-02-05T11:42:09.559Z,65.90
2023-02-05T11:44:55.013Z,65.50
2023-02-05T11:47:40.547Z,65.80
2023-02-05T11:50:26.870Z,66.10
2023-02-05T11:53:07.239Z,65.70
2023-02-05T11:55:38.085Z,65.40
2023-02-05T11:58:38.300Z,65.40
2023-02-05T12:01:29.085Z,66.10
2023-02-05T12:04:21.796Z,66.40
2023-02-05T12:07:12.699Z,66.50
2023-02-05T12:09:39.736Z,66.40
2023-02-05T12:12:32.920Z,65.60
2023-02-05T12:15:21.965Z,66.80
2023-02-05T12:17:59.840Z,65.90
2023-02-05T12:20:45.041Z,66.30
2023-02-05T12:23:38.784Z,66.30
2023-02-05T12:26:29.741Z,66.90
2023-02-05T12:29:39.189Z,66.20
2023-02-05T12:32:22.788Z,66.80
2023-02-05T12:35:22.530Z,66.10
2023-02-05T12:38:31.595Z,66.80
2023-02-05T12:41:22.721Z,66.60
2023-02-05T12:43:55.482Z,66.50
2023-02-05T12:46:43.860Z,66.10
2023-02-05T12:49:44.960Z,66.30
2023-02-05T12:52:50.801Z,67.20
2023-02-05T12:55:44.730Z,66.90
2023-02-05T12:58:16.937Z,66.40
2023-02-05T13:01:02.511Z,66.40
2023-02-05T13:03:41.718Z,66.90
2023-02-05T13:06:21.015Z,66.50
2023-02-05T13:09:01.006Z,66.70
2023-02-05T13:11:45.135Z,66.70
2023-02-05T13:14:16.031Z,66.90
2023-02-05T13:17:00.620Z,66.30
2023-02-05T13:20:01.078Z,66.80
2023-02-05T13:22:56.645Z,66.40
2023-02-05T13:26:08.373Z,66.50
2023-02-05T13:28:51.021Z,67.00
2023-02-05T13:32:15.318Z,66.60
2023-02-05T13:34:43.847Z,67.30
2023-02-05T13:37:34.034Z,66.70
2023-02-05T13:40:21.314Z,67.00
2023-02-05T13:43:18.601Z,66.70
2023-02-05T13:46:07.255Z,66.30
2023-02-05T13:49:01.923Z,66.80
2023-02-05T13:51:56.429Z,66.60
2023-02-05T13:54:38.271Z,66.70
2023-02-05T13:57:49.098Z,66.30
2023-02-05T14:00:17.034Z,66.60
2023-02-05T14:02:49.310Z,66.10
2023-02-05T14:05:33.770Z,66.20
2023-02-05T14:08:05.084Z,66.60
2023-02-05T14:10:36.163Z,66.30
2023-02-05T14:13:24.605Z,66.20
2023-02-05T14:15:57.471Z,66.30
2023-02-05T14:18:39.861Z,66.20
2023-02-05T14:21:31.394Z,66.80
2023-02-05T14:24:28.170Z,66.90
2023-02-05T14:27:02.387Z,66.00
2023-02-05T14:29:49.323Z,66.10
2023-02-05T14:32:28.403Z,66.80
2023-02-05T14:35:26.118Z,66.60
2023-02-05T14:38:00.367Z,66.20
2023-02-05T14:40:39.815Z,66.10
2023-02-05T14:43:33.253Z,66.70
2023-02-05T14:46:24.942Z,66.70
2023-02-05T14:48:58.202Z,66.40
2023-02-05T14:51:41.275Z,66.30
2023-02-05T14:54:22.973Z,66.60
2023-02-05T14:57:26.151Z,66.70
2023-02-05T15:00:06.357Z,66.50
2023-02-05T15:02:51.177Z,66.50
2023-02-05T15:05:52.150Z,66.70
2023-02-05T15:08:34.310Z,67.00
2023-02-05T15:11:30.982Z,67.00
2023-02-05T15:14:20.165Z,66.50
2023-02-05T15:17:07.248Z,67.20
2023-02-05T15:19:49.284Z,67.20
2023-02-05T15:22:34.756Z,66.50
2023-02-05T15:25:39.691Z,66.90
2023-02-05T15:28:30.721Z,66.50
2023-02-05T15:31:17.483Z,67.10
2023-02-05T15:34:07.656Z,66.60
2023-02-05T15:36:49.541Z,66.80
2023-02-05T15:39:46.863Z,66.90
2023-02-05T15:42:39.868Z,67.10
2023-02-05T15:45:45.138Z,66.80
2023-02-05T15:48:23.507Z,67.60
2023-02-05T15:50:58.417Z,66.80
2023-02-05T15:53:46.013Z,66.80
2023-02-05T15:56:32.771Z,67.00
2023-02-05T15:59:12.501Z,67.20
2023-02-05T16:01:47.849Z,67.10
2023-02-05T16:04:41.044Z,66.80
2023-02-05T16:07:22.052Z,67.60
2023-02-05T16:09:53.862Z,67.20
2023-02-05T16:12:23.216Z,66.80
2023-02-05T16:15:09.586Z,66.80
2023-02-05T16:17:44.772Z,67.10
2023-02-05T16:20:35.411Z,66.90
2023-02-05T16:23:35.334Z,67.40
2023-02-05T16:26:17.429Z,67.10
2023-02-05T16:29:02.507Z,66.90
2023-02-05T16:31:34.970Z,67.80
2023-02-05T16:34:12.529Z,67.00
2023-02-05T16:36:45.930Z,67.00
2023-02-05T16:39:21.632Z,67.10
2023-02-05T16:42:08.470Z,67.30
2023-02-05T16:44:42.941Z,68.10
2023-02-05T16:47:18.462Z,67.10
2023-02-05T16:49:48.205Z,67.40
2023-02-05T16:52:38.067Z,67.20
2023-02-05T16:55:27.260Z,67.60
2023-02-05T16:58:07.588Z,67.20
2023-02-05T17:00:35.114Z,67.40
2023-02-05T17:03:17.505Z,67.10
2023-02-05T17:05:44.866Z,67.50
2023-02-05T17:08:28.572Z,67.30
2023-02-05T17:11:00.205Z,67.40
2023-02-05T17:13:44.428Z,67.30
2023-02-05T17:16:52.972Z,67.80
2023-02-05T17:19:30.794Z,68.20
2023-02-05T17:22:17.324Z,67.40
2023-02-05T17:24:49.767Z,67.90
2023-02-05T17:27:28.894Z,67.20
2023-02-05T17:30:00.076Z,67.30
2023-02-05T17:32:30.803Z,67.30
2023-02-05T17:34:57.698Z,67.30
2023-02-05T17:37:25.182Z,67.30
2023-02-05T17:39:56.668Z,67.40
2023-02-05T17:42:27.044Z,67.40
2023-02-05T17:44:54.427Z,67.40
2023-02-05T17:47:23.429Z,67.40
2023-02-05T17:49:53.264Z,67.40
2023-02-05T17:52:24.916Z,67.60
2023-02-05T17:54:54.148Z,67.70
2023-02-05T17:57:22.664Z,67.60
2023-02-05T17:59:56.660Z,67.60
2023-02-05T18:02:31.812Z,67.50
2023-02-05T18:05:03.454Z,67.60
2023-02-05T18:07:36.609Z,67.60
2023-02-05T18:10:05.120Z,67.70
2023-02-05T18:12:32.250Z,67.70
2023-02-05T18:15:06.421Z,67.70
2023-02-05T18:17:35.963Z,67.80
2023-02-05T18:20:04.200Z,67.70
2023-02-05T18:22:31.783Z,67.70
2023-02-05T18:24:58.675Z,67.70
2023-02-05T18:27:28.073Z,67.70
2023-02-05T18:29:59.321Z,67.70
2023-02-05T18:32:30.821Z,67.80
2023-02-05T18:34:59.872Z,67.80
2023-02-05T18:37:26.922Z,67.90
2023-02-05T18:39:56.901Z,67.70
2023-02-05T18:42:29.051Z,67.90
2023-02-05T18:44:56.044Z,67.80
2023-02-05T18:47:30.043Z,67.80
2023-02-05T18:50:01.666Z,68.00
2023-02-05T18:52:32.967Z,67.90
2023-02-05T18:55:05.564Z,67.90
2023-02-05T18:57:32.512Z,68.00
2023-02-05T19:00:04.676Z,68.00
2023-02-05T19:02:35.237Z,68.00
2023-02-05T19:05:11.244Z,68.00
2023-02-05T19:07:39.114Z,68.00
2023-02-05T19:10:08.974Z,68.00
2023-02-05T19:12:38.408Z,68.00
2023-02-05T19:15:12.236Z,68.00
2023-02-05T19:17:39.261Z,68.00
2023-02-05T19:20:09.037Z,67.90
2023-02-05T19:22:41.084Z,68.00
2023-02-05T19:25:09.972Z,68.10
2023-02-05T19:27:39.131Z,68.10
2023-02-05T19:30:11.993Z,68.10
2023-02-05T19:32:42.094Z,68.20
2023-02-05T19:35:09.045Z,68.10
2023-02-05T19:37:40.487Z,68.10
2023-02-05T19:40:09.145Z,68.00
2023-02-05T19:42:38.573Z,67.90
2023-02-05T19:45:08.252Z,68.50
2023-02-05T19:47:37.200Z,68.00
2023-02-05T19:50:09.465Z,68.00
2023-02-05T19:52:41.093Z,68.10
2023-02-05T19:55:08.250Z,68.00
2023-02-05T19:57:35.342Z,68.00
2023-02-05T20:00:04.951Z,68.00
2023-02-05T20:02:38.900Z,67.90
2023-02-05T20:05:08.332Z,68.00
2023-02-05T20:07:38.189Z,67.90
2023-02-05T20:10:08.553Z,68.00
2023-02-05T20:12:40.800Z,68.10
2023-02-05T20:15:14.231Z,68.20
2023-02-05T20:17:41.123Z,68.20
2023-02-05T20:20:14.158Z,68.20
2023-02-05T20:22:50.232Z,68.20
2023-02-05T20:25:20.660Z,68.20
2023-02-05T20:27:47.455Z,68.10
2023-02-05T20:30:36.142Z,68.20
2023-02-05T20:33:03.461Z,68.20
2023-02-05T20:35:30.301Z,68.10
2023-02-05T20:37:57.222Z,68.10
2023-02-05T20:40:26.672Z,68.20
2023-02-05T20:42:53.737Z,68.30
2023-02-05T20:45:20.628Z,68.20
2023-02-05T20:47:50.594Z,68.20
2023-02-05T20:50:22.199Z,68.20
2023-02-05T20:52:51.069Z,68.30
2023-02-05T20:55:17.928Z,68.20
2023-02-05T20:57:47.110Z,68.20
2023-02-05T21:00:17.440Z,68.20
2023-02-05T21:02:46.461Z,68.20
2023-02-05T21:05:13.406Z,68.20
2023-02-05T21:07:43.056Z,68.20
2023-02-05T21:10:10.843Z,68.10
2023-02-05T21:12:38.041Z,68.20
2023-02-05T21:15:10.058Z,68.20
2023-02-05T21:17:42.844Z,68.30
2023-02-05T21:20:10.300Z,68.30
2023-02-05T21:22:37.337Z,68.20
2023-02-05T21:25:04.417Z,68.20
2023-02-05T21:27:33.348Z,68.20
2023-02-05T21:30:00.194Z,68.20
2023-02-05T21:32:30.569Z,68.20
2023-02-05T21:34:57.348Z,68.30
2023-02-05T21:37:34.417Z,68.30
2023-02-05T21:40:09.579Z,68.50
2023-02-05T21:42:39.203Z,68.50
2023-02-05T21:45:09.144Z,68.50
2023-02-05T21:47:38.452Z,68.50
2023-02-05T21:50:07.987Z,68.50
2023-02-05T21:52:37.281Z,68.50
2023-02-05T21:55:09.383Z,68.50
2023-02-05T21:57:38.585Z,68.60
2023-02-05T22:00:09.475Z,68.50
2023-02-05T22:02:39.483Z,68.50
2023-02-05T22:05:09.439Z,68.50
2023-02-05T22:07:36.312Z,68.60
2023-02-05T22:10:05.944Z,68.50
2023-02-05T22:12:37.743Z,68.50
2023-02-05T22:15:09.534Z,68.50
2023-02-05T22:17:36.491Z,68.60
2023-02-05T22:20:06.911Z,68.50
2023-02-05T22:22:36.637Z,68.60
2023-02-05T22:25:11.106Z,68.60
2023-02-05T22:27:41.710Z,68.70
2023-02-05T22:30:09.756Z,68.60
2023-02-05T22:32:43.328Z,68.60
2023-02-05T22:35:15.721Z,68.60
2023-02-05T22:37:42.589Z,68.50
2023-02-05T22:40:10.066Z,68.60
2023-02-05T22:42:36.974Z,68.60
2023-02-05T22:45:04.079Z,68.60
2023-02-05T22:47:35.954Z,68.60
2023-02-05T22:50:06.036Z,68.60
2023-02-05T22:52:32.872Z,68.50
2023-02-05T22:55:04.448Z,68.60
2023-02-05T22:57:36.229Z,68.60
2023-02-05T23:00:06.149Z,68.60
2023-02-05T23:02:39.842Z,68.50
2023-02-05T23:05:09.313Z,68.60
2023-02-05T23:07:39.166Z,68.60
2023-02-05T23:10:08.957Z,68.60
2023-02-05T23:12:40.197Z,68.60
2023-02-05T23:15:08.043Z,68.70
2023-02-05T23:17:39.471Z,68.60
2023-02-05T23:20:10.971Z,68.60
2023-02-05T23:22:40.331Z,68.60
2023-02-05T23:25:09.748Z,68.60
2023-02-05T23:27:36.710Z,68.70
2023-02-05T23:30:05.687Z,68.70
2023-02-05T23:32:39.761Z,68.80
2023-02-05T23:35:09.591Z,68.90
2023-02-05T23:37:38.934Z,68.90
2023-02-05T23:40:06.559Z,69.50
2023-02-05T23:42:33.363Z,68.90
2023-02-05T23:45:02.774Z,69.00
2023-02-05T23:47:32.222Z,68.80
2023-02-05T23:50:01.430Z,68.80
2023-02-05T23:52:30.348Z,68.90
2023-02-05T23:54:57.163Z,68.90
2023-02-05T23:57:28.847Z,68.90
